sensor_id;sensor_type;location;lat;lon;timestamp;temperature;humidity
36132;DHT22;22185;48.738;9.324;2023-06-24T00:00:36;16.80;99.90
36132;DHT22;22185;48.738;9.324;2023-06-24T00:02:39;16.70;99.90
36132;DHT22;22185;48.738;9.324;2023-06-24T00:04:44;16.50;99.90
36132;DHT22;22185;48.738;9.324;2023-06-24T00:06:46;16.60;99.90
36132;DHT22;22185;48.738;9.324;2023-06-24T00:08:48;16.70;99.90
36132;DHT22;22185;48.738;9.324;2023-06-24T00:10:50;16.70;99.90
36132;DHT22;22185;48.738;9.324;2023-06-24T00:12:52;16.70;99.90
36132;DHT22;22185;48.738;9.324;2023-06-24T00:14:53;16.60;99.90
36132;DHT22;22185;48.738;9.324;2023-06-24T00:16:55;16.70;99.90
36132;DHT22;22185;48.738;9.324;2023-06-24T00:18:57;16.70;99.90
36132;DHT22;22185;48.738;9.324;2023-06-24T00:21:00;16.60;99.90
36132;DHT22;22185;48.738;9.324;2023-06-24T00:23:02;16.40;99.90
36132;DHT22;22185;48.738;9.324;2023-06-24T00:25:04;16.40;99.90
36132;DHT22;22185;48.738;9.324;2023-06-24T00:27:06;16.30;99.90
36132;DHT22;22185;48.738;9.324;2023-06-24T00:29:08;16.30;99.90
36132;DHT22;22185;48.738;9.324;2023-06-24T00:31:10;16.20;99.90
36132;DHT22;22185;48.738;9.324;2023-06-24T00:33:13;16.10;99.90
36132;DHT22;22185;48.738;9.324;2023-06-24T00:35:15;16.00;99.90
36132;DHT22;22185;48.738;9.324;2023-06-24T00:37:17;16.10;99.90
36132;DHT22;22185;48.738;9.324;2023-06-24T00:39:18;16.30;99.90
36132;DHT22;22185;48.738;9.324;2023-06-24T00:41:20;16.20;99.90
36132;DHT22;22185;48.738;9.324;2023-06-24T00:43:22;16.20;99.90
36132;DHT22;22185;48.738;9.324;2023-06-24T00:45:24;16.30;99.90
36132;DHT22;22185;48.738;9.324;2023-06-24T00:47:26;16.30;99.90
36132;DHT22;22185;48.738;9.324;2023-06-24T00:49:27;16.30;99.90
36132;DHT22;22185;48.738;9.324;2023-06-24T00:51:29;16.30;99.90
36132;DHT22;22185;48.738;9.324;2023-06-24T00:53:33;16.10;99.90
36132;DHT22;22185;48.738;9.324;2023-06-24T00:55:34;16.00;99.90
36132;DHT22;22185;48.738;9.324;2023-06-24T00:57:36;15.80;99.90
36132;DHT22;22185;48.738;9.324;2023-06-24T00:59:38;15.80;99.90
36132;DHT22;22185;48.738;9.324;2023-06-24T01:01:42;15.80;99.90
36132;DHT22;22185;48.738;9.324;2023-06-24T01:03:46;15.80;99.90
36132;DHT22;22185;48.738;9.324;2023-06-24T01:05:48;15.90;99.90
36132;DHT22;22185;48.738;9.324;2023-06-24T01:07:50;15.80;99.90
36132;DHT22;22185;48.738;9.324;2023-06-24T01:09:57;16.00;99.90
36132;DHT22;22185;48.738;9.324;2023-06-24T01:11:59;15.80;99.90
36132;DHT22;22185;48.738;9.324;2023-06-24T01:14:06;16.00;99.90
36132;DHT22;22185;48.738;9.324;2023-06-24T01:16:10;15.80;99.90
36132;DHT22;22185;48.738;9.324;2023-06-24T01:18:21;15.90;99.90
36132;DHT22;22185;48.738;9.324;2023-06-24T01:20:44;15.90;99.90
36132;DHT22;22185;48.738;9.324;2023-06-24T01:23:11;16.00;99.90
36132;DHT22;22185;48.738;9.324;2023-06-24T01:30:12;15.80;99.90
36132;DHT22;22185;48.738;9.324;2023-06-24T01:36:01;15.80;99.90
36132;DHT22;22185;48.738;9.324;2023-06-24T01:38:05;15.90;99.90
36132;DHT22;22185;48.738;9.324;2023-06-24T01:42:11;15.70;99.90
36132;DHT22;22185;48.738;9.324;2023-06-24T01:44:15;15.70;99.90
36132;DHT22;22185;48.738;9.324;2023-06-24T01:46:20;15.70;99.90
36132;DHT22;22185;48.738;9.324;2023-06-24T01:48:23;15.70;99.90
36132;DHT22;22185;48.738;9.324;2023-06-24T01:50:30;15.60;99.90
36132;DHT22;22185;48.738;9.324;2023-06-24T01:52:33;15.50;99.90
36132;DHT22;22185;48.738;9.324;2023-06-24T01:54:36;15.50;99.90
36132;DHT22;22185;48.738;9.324;2023-06-24T01:56:39;15.40;99.90
36132;DHT22;22185;48.738;9.324;2023-06-24T01:58:43;15.40;99.90
36132;DHT22;22185;48.738;9.324;2023-06-24T02:00:46;15.30;99.90
36132;DHT22;22185;48.738;9.324;2023-06-24T02:02:48;15.50;99.90
36132;DHT22;22185;48.738;9.324;2023-06-24T02:04:51;15.60;99.90
36132;DHT22;22185;48.738;9.324;2023-06-24T02:06:53;15.50;99.90
36132;DHT22;22185;48.738;9.324;2023-06-24T02:08:56;15.60;99.90
36132;DHT22;22185;48.738;9.324;2023-06-24T02:11:00;15.50;99.90
36132;DHT22;22185;48.738;9.324;2023-06-24T02:13:02;15.30;99.90
36132;DHT22;22185;48.738;9.324;2023-06-24T02:15:05;15.10;99.90
36132;DHT22;22185;48.738;9.324;2023-06-24T02:17:08;15.10;99.90
36132;DHT22;22185;48.738;9.324;2023-06-24T02:19:11;15.30;99.90
36132;DHT22;22185;48.738;9.324;2023-06-24T02:21:13;15.50;99.90
36132;DHT22;22185;48.738;9.324;2023-06-24T02:23:15;15.40;99.90
36132;DHT22;22185;48.738;9.324;2023-06-24T02:25:17;15.10;99.90
36132;DHT22;22185;48.738;9.324;2023-06-24T02:27:19;15.20;99.90
36132;DHT22;22185;48.738;9.324;2023-06-24T02:29:21;15.20;99.90
36132;DHT22;22185;48.738;9.324;2023-06-24T02:31:23;15.20;99.90
36132;DHT22;22185;48.738;9.324;2023-06-24T02:33:25;15.30;99.90
36132;DHT22;22185;48.738;9.324;2023-06-24T02:35:27;15.10;99.90
36132;DHT22;22185;48.738;9.324;2023-06-24T02:37:29;15.20;99.90
36132;DHT22;22185;48.738;9.324;2023-06-24T02:39:31;14.90;99.90
36132;DHT22;22185;48.738;9.324;2023-06-24T02:41:33;14.80;99.90
36132;DHT22;22185;48.738;9.324;2023-06-24T02:43:34;14.70;99.90
36132;DHT22;22185;48.738;9.324;2023-06-24T02:45:38;14.70;99.90
36132;DHT22;22185;48.738;9.324;2023-06-24T02:47:40;14.80;99.90
36132;DHT22;22185;48.738;9.324;2023-06-24T02:49:43;14.90;99.90
36132;DHT22;22185;48.738;9.324;2023-06-24T02:51:47;15.00;99.90
36132;DHT22;22185;48.738;9.324;2023-06-24T02:53:49;14.90;99.90
36132;DHT22;22185;48.738;9.324;2023-06-24T02:55:51;14.70;99.90
36132;DHT22;22185;48.738;9.324;2023-06-24T02:57:53;14.60;99.90
36132;DHT22;22185;48.738;9.324;2023-06-24T02:59:56;14.60;99.90
36132;DHT22;22185;48.738;9.324;2023-06-24T03:01:58;14.60;99.90
36132;DHT22;22185;48.738;9.324;2023-06-24T03:04:01;14.70;99.90
36132;DHT22;22185;48.738;9.324;2023-06-24T03:06:03;14.70;99.90
36132;DHT22;22185;48.738;9.324;2023-06-24T03:08:04;14.90;99.90
36132;DHT22;22185;48.738;9.324;2023-06-24T03:10:06;14.70;99.90
36132;DHT22;22185;48.738;9.324;2023-06-24T03:12:08;14.60;99.90
36132;DHT22;22185;48.738;9.324;2023-06-24T03:14:10;14.60;99.90
36132;DHT22;22185;48.738;9.324;2023-06-24T03:16:12;14.60;99.90
36132;DHT22;22185;48.738;9.324;2023-06-24T03:18:15;14.80;99.90
36132;DHT22;22185;48.738;9.324;2023-06-24T03:20:17;14.90;99.90
36132;DHT22;22185;48.738;9.324;2023-06-24T03:22:18;14.70;99.90
36132;DHT22;22185;48.738;9.324;2023-06-24T03:24:21;14.70;99.90
36132;DHT22;22185;48.738;9.324;2023-06-24T03:26:23;14.70;99.90
36132;DHT22;22185;48.738;9.324;2023-06-24T03:28:24;14.60;99.90
36132;DHT22;22185;48.738;9.324;2023-06-24T03:30:26;14.40;99.90
36132;DHT22;22185;48.738;9.324;2023-06-24T03:32:28;14.40;99.90
36132;DHT22;22185;48.738;9.324;2023-06-24T03:34:30;14.20;99.90
36132;DHT22;22185;48.738;9.324;2023-06-24T03:36:31;14.30;99.90
36132;DHT22;22185;48.738;9.324;2023-06-24T03:38:36;14.40;99.90
36132;DHT22;22185;48.738;9.324;2023-06-24T03:40:38;14.60;99.90
36132;DHT22;22185;48.738;9.324;2023-06-24T03:42:39;14.60;99.90
36132;DHT22;22185;48.738;9.324;2023-06-24T03:44:41;14.40;99.90
36132;DHT22;22185;48.738;9.324;2023-06-24T03:46:43;14.40;99.90
36132;DHT22;22185;48.738;9.324;2023-06-24T03:48:44;14.50;99.90
36132;DHT22;22185;48.738;9.324;2023-06-24T03:50:46;14.80;99.90
36132;DHT22;22185;48.738;9.324;2023-06-24T03:52:48;14.70;99.90
36132;DHT22;22185;48.738;9.324;2023-06-24T03:54:50;14.60;99.90
36132;DHT22;22185;48.738;9.324;2023-06-24T03:56:51;14.60;99.90
36132;DHT22;22185;48.738;9.324;2023-06-24T03:58:53;14.50;99.90
36132;DHT22;22185;48.738;9.324;2023-06-24T04:00:55;14.60;99.90
36132;DHT22;22185;48.738;9.324;2023-06-24T04:02:58;14.90;99.90
36132;DHT22;22185;48.738;9.324;2023-06-24T04:05:02;14.90;99.90
36132;DHT22;22185;48.738;9.324;2023-06-24T04:07:04;14.80;99.90
36132;DHT22;22185;48.738;9.324;2023-06-24T04:09:07;14.70;99.90
36132;DHT22;22185;48.738;9.324;2023-06-24T04:11:10;14.60;99.90
36132;DHT22;22185;48.738;9.324;2023-06-24T04:13:13;14.70;99.90
36132;DHT22;22185;48.738;9.324;2023-06-24T04:15:14;14.70;99.90
36132;DHT22;22185;48.738;9.324;2023-06-24T04:17:16;14.60;99.90
36132;DHT22;22185;48.738;9.324;2023-06-24T04:19:18;14.70;99.90
36132;DHT22;22185;48.738;9.324;2023-06-24T04:21:20;14.70;99.90
36132;DHT22;22185;48.738;9.324;2023-06-24T04:23:21;14.70;99.90
36132;DHT22;22185;48.738;9.324;2023-06-24T04:25:23;14.70;99.90
36132;DHT22;22185;48.738;9.324;2023-06-24T04:27:24;14.70;99.90
36132;DHT22;22185;48.738;9.324;2023-06-24T04:29:26;14.70;99.90
36132;DHT22;22185;48.738;9.324;2023-06-24T04:31:28;14.80;99.90
36132;DHT22;22185;48.738;9.324;2023-06-24T04:33:29;14.90;99.90
36132;DHT22;22185;48.738;9.324;2023-06-24T04:35:31;14.80;99.90
36132;DHT22;22185;48.738;9.324;2023-06-24T04:37:33;14.80;99.90
36132;DHT22;22185;48.738;9.324;2023-06-24T04:39:35;14.80;99.90
36132;DHT22;22185;48.738;9.324;2023-06-24T04:41:37;15.10;99.90
36132;DHT22;22185;48.738;9.324;2023-06-24T04:43:38;15.00;99.90
36132;DHT22;22185;48.738;9.324;2023-06-24T04:45:40;15.10;99.90
36132;DHT22;22185;48.738;9.324;2023-06-24T04:47:42;15.10;99.90
36132;DHT22;22185;48.738;9.324;2023-06-24T04:49:44;15.20;99.90
36132;DHT22;22185;48.738;9.324;2023-06-24T04:51:45;15.20;99.90
36132;DHT22;22185;48.738;9.324;2023-06-24T04:53:47;15.10;99.90
36132;DHT22;22185;48.738;9.324;2023-06-24T04:55:50;15.10;99.90
36132;DHT22;22185;48.738;9.324;2023-06-24T04:57:51;15.20;99.90
36132;DHT22;22185;48.738;9.324;2023-06-24T04:59:53;15.20;99.90
36132;DHT22;22185;48.738;9.324;2023-06-24T05:01:55;15.20;99.90
36132;DHT22;22185;48.738;9.324;2023-06-24T05:03:56;15.30;99.90
36132;DHT22;22185;48.738;9.324;2023-06-24T05:05:58;15.30;99.90
36132;DHT22;22185;48.738;9.324;2023-06-24T05:08:00;15.30;99.90
36132;DHT22;22185;48.738;9.324;2023-06-24T05:10:02;15.30;99.90
36132;DHT22;22185;48.738;9.324;2023-06-24T05:12:06;15.40;99.90
36132;DHT22;22185;48.738;9.324;2023-06-24T05:14:08;15.40;99.90
36132;DHT22;22185;48.738;9.324;2023-06-24T05:16:10;15.40;99.90
36132;DHT22;22185;48.738;9.324;2023-06-24T05:18:12;15.40;99.90
36132;DHT22;22185;48.738;9.324;2023-06-24T05:20:13;15.40;99.90
36132;DHT22;22185;48.738;9.324;2023-06-24T05:22:16;15.40;99.90
36132;DHT22;22185;48.738;9.324;2023-06-24T05:24:18;15.50;99.90
36132;DHT22;22185;48.738;9.324;2023-06-24T05:26:20;15.60;99.90
36132;DHT22;22185;48.738;9.324;2023-06-24T05:28:21;15.50;99.90
36132;DHT22;22185;48.738;9.324;2023-06-24T05:30:23;15.50;99.90
36132;DHT22;22185;48.738;9.324;2023-06-24T05:32:25;15.60;99.90
36132;DHT22;22185;48.738;9.324;2023-06-24T05:34:26;15.60;99.90
36132;DHT22;22185;48.738;9.324;2023-06-24T05:36:28;15.60;99.90
36132;DHT22;22185;48.738;9.324;2023-06-24T05:38:30;15.70;99.90
36132;DHT22;22185;48.738;9.324;2023-06-24T05:40:31;15.80;99.90
36132;DHT22;22185;48.738;9.324;2023-06-24T05:42:33;15.80;99.90
36132;DHT22;22185;48.738;9.324;2023-06-24T05:44:35;15.80;99.90
36132;DHT22;22185;48.738;9.324;2023-06-24T05:46:37;15.90;99.90
36132;DHT22;22185;48.738;9.324;2023-06-24T05:48:39;15.90;99.90
36132;DHT22;22185;48.738;9.324;2023-06-24T05:50:40;15.90;99.90
36132;DHT22;22185;48.738;9.324;2023-06-24T05:52:42;16.00;99.90
36132;DHT22;22185;48.738;9.324;2023-06-24T05:54:44;15.90;99.90
36132;DHT22;22185;48.738;9.324;2023-06-24T05:56:45;16.10;99.90
36132;DHT22;22185;48.738;9.324;2023-06-24T05:58:47;16.10;99.90
36132;DHT22;22185;48.738;9.324;2023-06-24T06:00:49;16.10;99.90
36132;DHT22;22185;48.738;9.324;2023-06-24T06:02:51;16.20;99.90
36132;DHT22;22185;48.738;9.324;2023-06-24T06:04:53;16.30;99.90
36132;DHT22;22185;48.738;9.324;2023-06-24T06:06:54;16.30;99.90
36132;DHT22;22185;48.738;9.324;2023-06-24T06:08:56;16.50;99.90
36132;DHT22;22185;48.738;9.324;2023-06-24T06:10:59;16.50;99.90
36132;DHT22;22185;48.738;9.324;2023-06-24T06:13:01;16.50;99.90
36132;DHT22;22185;48.738;9.324;2023-06-24T06:15:03;16.60;99.90
36132;DHT22;22185;48.738;9.324;2023-06-24T06:17:05;16.70;99.90
36132;DHT22;22185;48.738;9.324;2023-06-24T06:19:07;16.80;99.90
36132;DHT22;22185;48.738;9.324;2023-06-24T06:21:09;16.80;99.90
36132;DHT22;22185;48.738;9.324;2023-06-24T06:23:10;16.80;99.90
36132;DHT22;22185;48.738;9.324;2023-06-24T06:25:12;16.80;99.90
36132;DHT22;22185;48.738;9.324;2023-06-24T06:27:14;16.90;99.90
36132;DHT22;22185;48.738;9.324;2023-06-24T06:29:15;17.00;99.90
36132;DHT22;22185;48.738;9.324;2023-06-24T06:31:17;17.10;99.90
36132;DHT22;22185;48.738;9.324;2023-06-24T06:33:19;17.10;99.90
36132;DHT22;22185;48.738;9.324;2023-06-24T06:35:20;17.20;99.90
36132;DHT22;22185;48.738;9.324;2023-06-24T06:37:22;17.20;99.90
36132;DHT22;22185;48.738;9.324;2023-06-24T06:39:24;17.30;99.90
36132;DHT22;22185;48.738;9.324;2023-06-24T06:41:26;17.40;99.90
36132;DHT22;22185;48.738;9.324;2023-06-24T06:43:27;17.50;99.90
36132;DHT22;22185;48.738;9.324;2023-06-24T06:45:29;17.60;99.90
36132;DHT22;22185;48.738;9.324;2023-06-24T06:47:33;17.70;99.90
36132;DHT22;22185;48.738;9.324;2023-06-24T06:49:35;17.70;99.90
36132;DHT22;22185;48.738;9.324;2023-06-24T06:51:36;17.80;99.90
36132;DHT22;22185;48.738;9.324;2023-06-24T06:53:38;17.80;99.90
36132;DHT22;22185;48.738;9.324;2023-06-24T06:55:40;17.90;99.90
36132;DHT22;22185;48.738;9.324;2023-06-24T06:57:44;17.90;99.90
36132;DHT22;22185;48.738;9.324;2023-06-24T06:59:45;18.10;99.90
36132;DHT22;22185;48.738;9.324;2023-06-24T07:01:47;18.10;99.90
36132;DHT22;22185;48.738;9.324;2023-06-24T07:03:50;18.10;99.90
36132;DHT22;22185;48.738;9.324;2023-06-24T07:05:52;18.20;99.90
36132;DHT22;22185;48.738;9.324;2023-06-24T07:07:54;18.30;99.90
36132;DHT22;22185;48.738;9.324;2023-06-24T07:09:56;18.40;99.90
36132;DHT22;22185;48.738;9.324;2023-06-24T07:11:57;18.60;99.90
36132;DHT22;22185;48.738;9.324;2023-06-24T07:13:59;18.60;99.90
36132;DHT22;22185;48.738;9.324;2023-06-24T07:16:01;18.70;99.90
36132;DHT22;22185;48.738;9.324;2023-06-24T07:18:03;18.80;99.90
36132;DHT22;22185;48.738;9.324;2023-06-24T07:20:05;18.90;99.90
36132;DHT22;22185;48.738;9.324;2023-06-24T07:22:06;18.80;99.90
36132;DHT22;22185;48.738;9.324;2023-06-24T07:24:08;18.90;99.90
36132;DHT22;22185;48.738;9.324;2023-06-24T07:26:10;19.00;99.90
36132;DHT22;22185;48.738;9.324;2023-06-24T07:28:11;19.10;99.90
36132;DHT22;22185;48.738;9.324;2023-06-24T07:30:14;19.10;99.90
36132;DHT22;22185;48.738;9.324;2023-06-24T07:32:16;19.10;99.90
36132;DHT22;22185;48.738;9.324;2023-06-24T07:34:17;19.20;99.90
36132;DHT22;22185;48.738;9.324;2023-06-24T07:36:19;19.20;99.90
36132;DHT22;22185;48.738;9.324;2023-06-24T07:38:21;19.40;99.90
36132;DHT22;22185;48.738;9.324;2023-06-24T07:40:23;19.60;99.90
36132;DHT22;22185;48.738;9.324;2023-06-24T07:42:24;19.70;99.90
36132;DHT22;22185;48.738;9.324;2023-06-24T07:44:26;19.70;99.90
36132;DHT22;22185;48.738;9.324;2023-06-24T07:46:28;19.80;99.90
36132;DHT22;22185;48.738;9.324;2023-06-24T07:48:30;19.90;99.90
36132;DHT22;22185;48.738;9.324;2023-06-24T07:50:31;19.90;99.90
36132;DHT22;22185;48.738;9.324;2023-06-24T07:52:33;20.20;99.90
36132;DHT22;22185;48.738;9.324;2023-06-24T07:54:35;20.20;99.90
36132;DHT22;22185;48.738;9.324;2023-06-24T07:56:37;20.30;99.90
36132;DHT22;22185;48.738;9.324;2023-06-24T07:58:38;20.60;99.90
36132;DHT22;22185;48.738;9.324;2023-06-24T08:00:40;20.60;99.90
36132;DHT22;22185;48.738;9.324;2023-06-24T08:02:42;20.50;99.90
36132;DHT22;22185;48.738;9.324;2023-06-24T08:04:44;20.40;99.90
36132;DHT22;22185;48.738;9.324;2023-06-24T08:06:46;20.50;99.90
36132;DHT22;22185;48.738;9.324;2023-06-24T08:08:48;20.60;99.90
36132;DHT22;22185;48.738;9.324;2023-06-24T08:10:49;20.70;99.90
36132;DHT22;22185;48.738;9.324;2023-06-24T08:12:51;20.70;99.90
36132;DHT22;22185;48.738;9.324;2023-06-24T08:14:52;20.70;99.90
36132;DHT22;22185;48.738;9.324;2023-06-24T08:16:54;20.80;99.90
36132;DHT22;22185;48.738;9.324;2023-06-24T08:18:56;20.60;99.90
36132;DHT22;22185;48.738;9.324;2023-06-24T08:20:58;20.80;99.90
36132;DHT22;22185;48.738;9.324;2023-06-24T08:22:59;21.10;99.90
36132;DHT22;22185;48.738;9.324;2023-06-24T08:25:01;21.10;99.90
36132;DHT22;22185;48.738;9.324;2023-06-24T08:27:03;21.20;99.90
36132;DHT22;22185;48.738;9.324;2023-06-24T08:29:05;21.30;99.90
36132;DHT22;22185;48.738;9.324;2023-06-24T08:31:08;21.20;99.90
36132;DHT22;22185;48.738;9.324;2023-06-24T08:33:09;21.30;99.90
36132;DHT22;22185;48.738;9.324;2023-06-24T08:35:11;21.20;99.90
36132;DHT22;22185;48.738;9.324;2023-06-24T08:37:13;21.20;99.90
36132;DHT22;22185;48.738;9.324;2023-06-24T08:39:14;21.20;99.90
36132;DHT22;22185;48.738;9.324;2023-06-24T08:41:16;21.30;99.90
36132;DHT22;22185;48.738;9.324;2023-06-24T08:43:18;21.20;99.90
36132;DHT22;22185;48.738;9.324;2023-06-24T08:45:20;21.40;99.90
36132;DHT22;22185;48.738;9.324;2023-06-24T08:47:23;21.50;99.90
36132;DHT22;22185;48.738;9.324;2023-06-24T08:49:27;21.60;99.90
36132;DHT22;22185;48.738;9.324;2023-06-24T08:51:31;21.50;99.90
36132;DHT22;22185;48.738;9.324;2023-06-24T08:53:36;21.70;99.90
36132;DHT22;22185;48.738;9.324;2023-06-24T08:55:40;21.80;99.90
36132;DHT22;22185;48.738;9.324;2023-06-24T08:57:42;21.80;99.90
36132;DHT22;22185;48.738;9.324;2023-06-24T08:59:44;21.80;99.90
36132;DHT22;22185;48.738;9.324;2023-06-24T09:01:46;21.90;99.90
36132;DHT22;22185;48.738;9.324;2023-06-24T09:03:48;22.20;99.90
36132;DHT22;22185;48.738;9.324;2023-06-24T09:05:50;22.20;99.90
36132;DHT22;22185;48.738;9.324;2023-06-24T09:07:52;22.10;99.90
36132;DHT22;22185;48.738;9.324;2023-06-24T09:09:53;22.20;99.90
36132;DHT22;22185;48.738;9.324;2023-06-24T09:11:56;22.10;99.90
36132;DHT22;22185;48.738;9.324;2023-06-24T09:13:59;22.30;99.90
36132;DHT22;22185;48.738;9.324;2023-06-24T09:16:08;22.20;99.90
36132;DHT22;22185;48.738;9.324;2023-06-24T09:18:12;22.30;99.90
36132;DHT22;22185;48.738;9.324;2023-06-24T09:20:14;22.30;99.90
36132;DHT22;22185;48.738;9.324;2023-06-24T09:22:21;22.30;99.90
36132;DHT22;22185;48.738;9.324;2023-06-24T09:24:26;22.50;99.90
36132;DHT22;22185;48.738;9.324;2023-06-24T09:26:28;22.60;99.90
36132;DHT22;22185;48.738;9.324;2023-06-24T09:28:31;22.80;99.90
36132;DHT22;22185;48.738;9.324;2023-06-24T09:30:33;23.10;99.90
36132;DHT22;22185;48.738;9.324;2023-06-24T09:32:35;22.90;99.90
36132;DHT22;22185;48.738;9.324;2023-06-24T09:34:37;22.80;99.90
36132;DHT22;22185;48.738;9.324;2023-06-24T09:36:41;22.80;99.90
36132;DHT22;22185;48.738;9.324;2023-06-24T09:38:43;23.00;99.90
36132;DHT22;22185;48.738;9.324;2023-06-24T09:40:52;23.20;99.90
36132;DHT22;22185;48.738;9.324;2023-06-24T09:43:16;23.10;99.90
36132;DHT22;22185;48.738;9.324;2023-06-24T09:45:25;23.40;99.90
36132;DHT22;22185;48.738;9.324;2023-06-24T09:47:27;23.40;99.90
36132;DHT22;22185;48.738;9.324;2023-06-24T09:49:30;23.50;99.90
36132;DHT22;22185;48.738;9.324;2023-06-24T09:51:37;23.40;99.90
36132;DHT22;22185;48.738;9.324;2023-06-24T09:53:39;23.70;99.90
36132;DHT22;22185;48.738;9.324;2023-06-24T09:55:41;23.90;99.90
36132;DHT22;22185;48.738;9.324;2023-06-24T09:57:45;23.90;99.90
36132;DHT22;22185;48.738;9.324;2023-06-24T09:59:48;24.00;99.90
36132;DHT22;22185;48.738;9.324;2023-06-24T10:01:51;24.10;99.90
36132;DHT22;22185;48.738;9.324;2023-06-24T10:03:53;24.20;99.90
36132;DHT22;22185;48.738;9.324;2023-06-24T10:05:55;24.50;99.90
36132;DHT22;22185;48.738;9.324;2023-06-24T10:07:57;24.80;99.90
36132;DHT22;22185;48.738;9.324;2023-06-24T10:10:00;24.70;99.90
36132;DHT22;22185;48.738;9.324;2023-06-24T10:12:02;24.50;99.90
36132;DHT22;22185;48.738;9.324;2023-06-24T10:14:04;24.40;99.90
36132;DHT22;22185;48.738;9.324;2023-06-24T10:16:06;24.70;99.90
36132;DHT22;22185;48.738;9.324;2023-06-24T10:18:31;25.10;99.90
36132;DHT22;22185;48.738;9.324;2023-06-24T10:20:36;25.30;99.90
36132;DHT22;22185;48.738;9.324;2023-06-24T10:22:38;25.40;99.90
36132;DHT22;22185;48.738;9.324;2023-06-24T10:24:41;25.40;99.90
36132;DHT22;22185;48.738;9.324;2023-06-24T10:26:44;25.70;99.90
36132;DHT22;22185;48.738;9.324;2023-06-24T10:31:06;26.10;99.90
36132;DHT22;22185;48.738;9.324;2023-06-24T10:33:10;26.10;99.90
36132;DHT22;22185;48.738;9.324;2023-06-24T10:35:25;26.40;99.90
36132;DHT22;22185;48.738;9.324;2023-06-24T10:37:32;26.50;99.90
36132;DHT22;22185;48.738;9.324;2023-06-24T10:39:38;25.80;99.90
36132;DHT22;22185;48.738;9.324;2023-06-24T10:41:40;25.90;99.90
36132;DHT22;22185;48.738;9.324;2023-06-24T10:43:42;26.60;99.90
36132;DHT22;22185;48.738;9.324;2023-06-24T10:45:48;28.10;99.90
36132;DHT22;22185;48.738;9.324;2023-06-24T10:47:51;30.30;99.90
36132;DHT22;22185;48.738;9.324;2023-06-24T10:49:54;30.80;99.90
36132;DHT22;22185;48.738;9.324;2023-06-24T10:51:56;30.40;99.90
36132;DHT22;22185;48.738;9.324;2023-06-24T10:53:58;28.80;99.90
36132;DHT22;22185;48.738;9.324;2023-06-24T10:56:00;27.20;99.90
36132;DHT22;22185;48.738;9.324;2023-06-24T10:58:12;28.60;99.90
36132;DHT22;22185;48.738;9.324;2023-06-24T11:00:16;31.00;99.90
36132;DHT22;22185;48.738;9.324;2023-06-24T11:02:19;32.60;99.90
36132;DHT22;22185;48.738;9.324;2023-06-24T11:04:21;32.30;98.90
36132;DHT22;22185;48.738;9.324;2023-06-24T11:06:23;32.30;96.80
36132;DHT22;22185;48.738;9.324;2023-06-24T11:08:25;32.80;96.40
36132;DHT22;22185;48.738;9.324;2023-06-24T11:10:27;32.10;96.40
36132;DHT22;22185;48.738;9.324;2023-06-24T11:12:30;32.20;94.50
36132;DHT22;22185;48.738;9.324;2023-06-24T11:14:35;32.20;96.60
36132;DHT22;22185;48.738;9.324;2023-06-24T11:16:38;32.40;95.20
36132;DHT22;22185;48.738;9.324;2023-06-24T11:18:40;30.20;96.20
36132;DHT22;22185;48.738;9.324;2023-06-24T11:20:42;28.60;98.80
36132;DHT22;22185;48.738;9.324;2023-06-24T11:22:45;29.50;99.90
36132;DHT22;22185;48.738;9.324;2023-06-24T11:24:46;31.20;97.80
36132;DHT22;22185;48.738;9.324;2023-06-24T11:26:48;32.80;95.10
36132;DHT22;22185;48.738;9.324;2023-06-24T11:28:50;33.30;93.30
36132;DHT22;22185;48.738;9.324;2023-06-24T11:30:52;33.70;94.30
36132;DHT22;22185;48.738;9.324;2023-06-24T11:32:53;32.00;90.50
36132;DHT22;22185;48.738;9.324;2023-06-24T11:34:55;31.80;96.80
36132;DHT22;22185;48.738;9.324;2023-06-24T11:36:57;33.20;93.80
36132;DHT22;22185;48.738;9.324;2023-06-24T11:38:59;33.00;93.20
36132;DHT22;22185;48.738;9.324;2023-06-24T11:41:01;32.70;96.30
36132;DHT22;22185;48.738;9.324;2023-06-24T11:43:03;33.00;94.90
36132;DHT22;22185;48.738;9.324;2023-06-24T11:45:09;34.30;93.80
36132;DHT22;22185;48.738;9.324;2023-06-24T11:47:14;32.80;93.60
36132;DHT22;22185;48.738;9.324;2023-06-24T11:49:16;32.00;92.20
36132;DHT22;22185;48.738;9.324;2023-06-24T11:51:18;32.00;91.50
36132;DHT22;22185;48.738;9.324;2023-06-24T11:53:28;32.50;92.70
36132;DHT22;22185;48.738;9.324;2023-06-24T11:55:30;33.20;94.40
36132;DHT22;22185;48.738;9.324;2023-06-24T11:59:55;32.50;90.30
36132;DHT22;22185;48.738;9.324;2023-06-24T12:01:58;32.90;91.60
36132;DHT22;22185;48.738;9.324;2023-06-24T12:04:00;33.70;87.90
36132;DHT22;22185;48.738;9.324;2023-06-24T12:06:02;33.90;91.70
36132;DHT22;22185;48.738;9.324;2023-06-24T12:08:05;35.10;93.50
36132;DHT22;22185;48.738;9.324;2023-06-24T12:10:11;35.40;90.00
36132;DHT22;22185;48.738;9.324;2023-06-24T12:12:13;34.20;86.30
36132;DHT22;22185;48.738;9.324;2023-06-24T12:14:15;34.50;90.40
36132;DHT22;22185;48.738;9.324;2023-06-24T12:16:16;35.10;91.80
36132;DHT22;22185;48.738;9.324;2023-06-24T12:18:18;35.20;86.10
36132;DHT22;22185;48.738;9.324;2023-06-24T12:20:20;34.50;92.40
36132;DHT22;22185;48.738;9.324;2023-06-24T12:22:22;35.00;88.80
36132;DHT22;22185;48.738;9.324;2023-06-24T12:24:23;35.10;88.60
36132;DHT22;22185;48.738;9.324;2023-06-24T12:26:25;34.20;90.00
36132;DHT22;22185;48.738;9.324;2023-06-24T12:28:27;34.70;93.20
36132;DHT22;22185;48.738;9.324;2023-06-24T12:30:28;34.40;87.20
36132;DHT22;22185;48.738;9.324;2023-06-24T12:32:31;33.60;92.00
36132;DHT22;22185;48.738;9.324;2023-06-24T12:34:32;34.80;92.50
36132;DHT22;22185;48.738;9.324;2023-06-24T12:36:34;34.70;88.20
36132;DHT22;22185;48.738;9.324;2023-06-24T12:38:36;34.80;89.60
36132;DHT22;22185;48.738;9.324;2023-06-24T12:40:37;34.30;88.40
36132;DHT22;22185;48.738;9.324;2023-06-24T12:42:39;35.20;89.00
36132;DHT22;22185;48.738;9.324;2023-06-24T12:44:41;35.60;90.60
36132;DHT22;22185;48.738;9.324;2023-06-24T12:46:42;35.60;88.90
36132;DHT22;22185;48.738;9.324;2023-06-24T12:48:44;35.50;87.10
36132;DHT22;22185;48.738;9.324;2023-06-24T12:50:46;35.60;86.40
36132;DHT22;22185;48.738;9.324;2023-06-24T12:52:49;35.60;88.20
36132;DHT22;22185;48.738;9.324;2023-06-24T12:54:50;35.80;79.80
36132;DHT22;22185;48.738;9.324;2023-06-24T12:56:52;35.20;79.50
36132;DHT22;22185;48.738;9.324;2023-06-24T12:59:09;34.10;82.50
36132;DHT22;22185;48.738;9.324;2023-06-24T13:01:11;35.40;88.20
36132;DHT22;22185;48.738;9.324;2023-06-24T13:03:16;35.90;89.80
36132;DHT22;22185;48.738;9.324;2023-06-24T13:05:17;36.00;88.10
36132;DHT22;22185;48.738;9.324;2023-06-24T13:07:19;35.60;85.90
36132;DHT22;22185;48.738;9.324;2023-06-24T13:09:21;35.20;80.70